Time;durP1;ratioP1;P1;durP2;ratioP2;P2;SDS_P1;SDS_P2;PMS_P1;PMS_P2;Temp;Humidity;BMP_temperature;BMP_pressure;BME280_temperature;BME280_humidity;BME280_pressure;Samples;Min_cycle;Max_cycle;Signal;HPM_P1;HPM_P2
2024/02/23 00:01:51;;;;;;;4.38;1.80;;;;;;;6.89;100.00;98698.91;5096166;28;20047;-68
2024/02/23 00:04:39;;;;;;;3.72;1.60;;;;;;;6.82;100.00;98693.88;5108306;28;20407;-68
2024/02/23 00:07:28;;;;;;;3.55;1.70;;;;;;;6.75;100.00;98706.97;5097127;28;20043;-68
2024/02/23 00:10:16;;;;;;;3.30;1.58;;;;;;;6.72;100.00;98712.19;5115356;28;20197;-68
2024/02/23 00:13:04;;;;;;;4.80;1.80;;;;;;;6.72;100.00;98714.91;5132300;28;20338;-67
2024/02/23 00:15:52;;;;;;;2.60;1.60;;;;;;;6.81;100.00;98713.94;5081103;28;20031;-68
2024/02/23 00:18:40;;;;;;;2.95;1.50;;;;;;;6.78;100.00;98717.25;5110541;28;20043;-68
2024/02/23 00:21:28;;;;;;;6.30;2.08;;;;;;;6.83;100.00;98722.56;5084260;28;20596;-68
2024/02/23 00:24:22;;;;;;;4.32;1.90;;;;;;;6.80;100.00;98715.00;5075374;28;20059;-68
2024/02/23 00:27:10;;;;;;;3.58;1.60;;;;;;;6.73;100.00;98713.78;5127633;28;20475;-68
2024/02/23 00:29:59;;;;;;;4.75;1.65;;;;;;;6.70;100.00;98723.31;5104550;28;20047;-67
2024/02/23 00:32:47;;;;;;;4.05;1.90;;;;;;;6.80;100.00;98733.16;5104064;28;20051;-68
2024/02/23 00:35:35;;;;;;;5.18;1.80;;;;;;;6.76;100.00;98734.88;5094327;28;20522;-68
2024/02/23 00:38:23;;;;;;;5.45;1.80;;;;;;;6.70;100.00;98728.72;5095064;28;20056;-68
2024/02/23 00:41:11;;;;;;;4.60;2.08;;;;;;;6.79;100.00;98740.50;5111127;28;20043;-67
2024/02/23 00:43:59;;;;;;;5.68;1.95;;;;;;;6.78;100.00;98747.00;5102781;28;20051;-67
2024/02/23 00:46:47;;;;;;;6.63;2.10;;;;;;;6.79;100.00;98743.19;5095926;28;20511;-67
2024/02/23 00:49:35;;;;;;;5.68;1.85;;;;;;;6.74;100.00;98743.28;5096710;28;20048;-67
2024/02/23 00:52:23;;;;;;;3.60;1.52;;;;;;;6.80;100.00;98746.69;5111836;28;20052;-68
2024/02/23 00:55:11;;;;;;;4.50;1.90;;;;;;;6.75;100.00;98750.28;5094688;28;20039;-67
2024/02/23 00:57:59;;;;;;;4.10;1.65;;;;;;;6.79;100.00;98758.63;5102539;28;20052;-67
2024/02/23 01:00:47;;;;;;;4.78;1.80;;;;;;;6.76;100.00;98760.03;5111640;28;20462;-67
2024/02/23 01:03:35;;;;;;;5.22;1.83;;;;;;;6.82;100.00;98764.25;5104013;27;20035;-68
2024/02/23 01:06:23;;;;;;;4.82;2.10;;;;;;;6.75;100.00;98771.94;5112202;28;20051;-68
2024/02/23 01:09:11;;;;;;;4.70;1.70;;;;;;;6.74;100.00;98778.47;5113933;27;20525;-67
2024/02/23 01:11:59;;;;;;;4.97;1.60;;;;;;;6.83;100.00;98770.47;5100181;28;20111;-67
2024/02/23 01:14:48;;;;;;;5.82;2.10;;;;;;;6.85;100.00;98778.31;5112881;28;20464;-68
2024/02/23 01:17:37;;;;;;;4.07;2.00;;;;;;;6.79;100.00;98772.97;5115906;28;20105;-68
2024/02/23 01:20:25;;;;;;;5.05;2.15;;;;;;;6.77;100.00;98787.88;5100701;28;20123;-68
2024/02/23 01:23:13;;;;;;;4.07;1.58;;;;;;;6.66;100.00;98789.91;5086226;28;20035;-68
2024/02/23 01:26:02;;;;;;;4.53;1.70;;;;;;;6.62;100.00;98797.03;5114138;27;20118;-68
2024/02/23 01:28:50;;;;;;;5.20;1.65;;;;;;;6.72;100.00;98791.47;5116008;27;20058;-67
2024/02/23 01:31:38;;;;;;;6.43;1.70;;;;;;;6.67;100.00;98794.25;5118935;27;20035;-67
2024/02/23 01:34:26;;;;;;;8.73;2.65;;;;;;;6.62;100.00;98788.91;5107517;27;20411;-67
2024/02/23 01:37:14;;;;;;;7.45;1.90;;;;;;;6.63;100.00;98798.63;5102516;28;20052;-68
2024/02/23 01:40:02;;;;;;;4.75;1.95;;;;;;;6.61;100.00;98790.81;5099576;28;20051;-67
2024/02/23 01:43:04;;;;;;;8.05;2.25;;;;;;;6.53;100.00;98787.97;5085109;28;20139;-68
2024/02/23 01:45:52;;;;;;;7.18;2.05;;;;;;;6.53;100.00;98788.75;5087746;28;20135;-67
2024/02/23 01:48:40;;;;;;;4.13;1.50;;;;;;;6.55;100.00;98791.97;5064801;28;20132;-67
2024/02/23 01:51:29;;;;;;;4.28;1.70;;;;;;;6.62;100.00;98797.03;5094377;28;20177;-68
2024/02/23 01:54:17;;;;;;;5.63;1.90;;;;;;;6.61;100.00;98798.13;5086545;28;20408;-68
2024/02/23 01:57:05;;;;;;;7.55;2.15;;;;;;;6.56;100.00;98811.72;5099529;27;20058;-67
2024/02/23 02:00:17;;;;;;;7.43;2.42;;;;;;;6.49;100.00;98803.16;5121080;27;20050;-68
2024/02/23 02:03:11;;;;;;;7.90;2.08;;;;;;;6.46;100.00;98809.16;5066225;28;20040;-67
2024/02/23 02:06:00;;;;;;;8.00;2.30;;;;;;;6.48;100.00;98809.66;5098389;28;20126;-68
2024/02/23 02:08:48;;;;;;;7.80;2.30;;;;;;;6.54;100.00;98816.59;5099537;28;20535;-67
2024/02/23 02:11:46;;;;;;;4.30;1.75;;;;;;;6.53;100.00;98805.00;5115017;27;20114;-67
2024/02/23 02:14:34;;;;;;;3.67;1.48;;;;;;;6.72;100.00;98807.72;5081958;28;20131;-67
2024/02/23 02:17:22;;;;;;;5.60;2.00;;;;;;;6.61;100.00;98817.06;5097400;28;20052;-68
2024/02/23 02:20:13;;;;;;;4.75;2.13;;;;;;;6.59;100.00;98819.25;5113460;28;20039;-68
2024/02/23 02:23:01;;;;;;;4.30;1.67;;;;;;;6.61;100.00;98826.00;5123381;27;20066;-66
2024/02/23 02:25:56;;;;;;;8.23;2.55;;;;;;;6.55;100.00;98820.94;5114005;28;20047;-66
2024/02/23 02:28:44;;;;;;;7.53;2.05;;;;;;;6.63;100.00;98827.59;5098708;28;20233;-67
2024/02/23 02:31:36;;;;;;;7.18;2.15;;;;;;;6.64;100.00;98832.72;5105861;28;20051;-62
2024/02/23 02:34:24;;;;;;;7.35;2.40;;;;;;;6.55;100.00;98834.47;5119247;27;20430;-63
2024/02/23 02:37:12;;;;;;;7.03;2.05;;;;;;;6.53;100.00;98837.47;5128507;28;20042;-68
2024/02/23 02:40:00;;;;;;;4.63;1.67;;;;;;;6.44;100.00;98839.19;5099508;28;20044;-68
2024/02/23 02:42:48;;;;;;;7.45;1.70;;;;;;;6.46;100.00;98837.00;5083110;28;20044;-68
2024/02/23 02:45:36;;;;;;;4.03;1.80;;;;;;;6.47;100.00;98837.81;5082913;28;20054;-67
2024/02/23 02:48:24;;;;;;;5.93;1.60;;;;;;;6.58;100.00;98850.13;5095915;28;20058;-68
2024/02/23 02:51:12;;;;;;;6.28;2.20;;;;;;;6.39;100.00;98836.53;5078224;28;20523;-67
2024/02/23 02:54:00;;;;;;;5.78;2.08;;;;;;;6.34;100.00;98848.22;5071268;27;20201;-67
2024/02/23 02:56:50;;;;;;;5.40;2.08;;;;;;;6.38;100.00;98862.00;5114087;27;20051;-68
2024/02/23 02:59:38;;;;;;;7.78;1.98;;;;;;;6.49;100.00;98868.88;5135972;27;20531;-67
2024/02/23 03:02:26;;;;;;;6.07;2.10;;;;;;;6.45;100.00;98856.25;5118668;27;20047;-67
2024/02/23 03:05:15;;;;;;;5.32;2.03;;;;;;;6.35;100.00;98868.78;5049975;28;20416;-68
2024/02/23 03:08:03;;;;;;;5.70;1.83;;;;;;;6.26;100.00;98859.69;5076964;28;20040;-68
2024/02/23 03:10:51;;;;;;;6.72;2.03;;;;;;;6.49;100.00;98862.66;5092970;28;20412;-66
2024/02/23 03:13:39;;;;;;;5.50;1.70;;;;;;;6.35;100.00;98863.38;5099077;27;20069;-68
2024/02/23 03:16:28;;;;;;;6.07;2.10;;;;;;;6.31;100.00;98864.25;5129014;27;20050;-68
2024/02/23 03:19:19;;;;;;;5.43;2.03;;;;;;;6.36;100.00;98870.38;5113268;28;20128;-68
2024/02/23 03:22:07;;;;;;;8.30;2.33;;;;;;;6.26;100.00;98865.09;5096337;28;20044;-68
2024/02/23 03:24:55;;;;;;;4.53;1.75;;;;;;;6.30;100.00;98866.16;5111503;28;20044;-68
2024/02/23 03:27:43;;;;;;;8.05;2.25;;;;;;;6.23;100.00;98862.97;5109589;28;20082;-68
2024/02/23 03:30:31;;;;;;;5.75;1.70;;;;;;;6.35;100.00;98866.09;5096329;28;20044;-68
2024/02/23 03:33:23;;;;;;;5.35;2.08;;;;;;;6.28;100.00;98864.81;5096772;28;20124;-68
2024/02/23 03:36:12;;;;;;;9.65;2.40;;;;;;;6.27;100.00;98866.69;5111474;28;20040;-68
2024/02/23 03:39:00;;;;;;;5.88;1.83;;;;;;;6.31;100.00;98862.34;5095878;28;20131;-68
2024/02/23 03:41:48;;;;;;;8.25;2.00;;;;;;;6.24;100.00;98864.59;5050375;28;20517;-68
2024/02/23 03:44:36;;;;;;;8.35;2.22;;;;;;;6.18;100.00;98873.81;5077371;28;20106;-67
2024/02/23 03:47:24;;;;;;;4.43;1.90;;;;;;;6.23;100.00;98875.69;5131577;27;20073;-68
2024/02/23 03:50:12;;;;;;;5.00;1.95;;;;;;;6.31;100.00;98883.97;5096194;28;20122;-68
2024/02/23 03:53:00;;;;;;;3.55;2.00;;;;;;;6.28;100.00;98889.16;5111729;28;20552;-68
2024/02/23 03:55:48;;;;;;;7.15;1.88;;;;;;;6.25;100.00;98887.81;5112406;28;20533;-68
2024/02/23 03:58:36;;;;;;;4.93;1.90;;;;;;;6.20;100.00;98882.47;5081499;28;20040;-68
2024/02/23 04:01:24;;;;;;;5.82;1.63;;;;;;;6.28;100.00;98895.38;5098070;28;20518;-68
2024/02/23 04:04:12;;;;;;;5.05;2.15;;;;;;;6.20;100.00;98890.56;5097481;28;20052;-67
2024/02/23 04:07:00;;;;;;;4.05;1.60;;;;;;;6.29;100.00;98880.75;5095410;28;20047;-68
2024/02/23 04:09:52;;;;;;;4.78;2.05;;;;;;;6.23;100.00;98890.03;5121523;28;20530;-69
2024/02/23 04:12:40;;;;;;;5.00;1.95;;;;;;;6.22;100.00;98885.69;5103472;28;20058;-68
2024/02/23 04:15:28;;;;;;;7.50;2.33;;;;;;;6.17;100.00;98889.25;5132805;28;20046;-67
2024/02/23 04:18:16;;;;;;;8.60;2.08;;;;;;;6.21;100.00;98892.22;5082691;28;20044;-68
2024/02/23 04:21:04;;;;;;;7.45;2.08;;;;;;;6.25;100.00;98885.13;5093115;28;20052;-67
2024/02/23 04:23:53;;;;;;;6.75;1.80;;;;;;;6.30;100.00;98898.59;5097056;28;20093;-68
2024/02/23 04:26:40;;;;;;;5.10;1.85;;;;;;;6.28;100.00;98903.50;5111631;28;20059;-68
2024/02/23 04:29:28;;;;;;;4.75;1.85;;;;;;;6.23;100.00;98908.13;5112624;28;20539;-68
2024/02/23 04:32:16;;;;;;;8.35;2.13;;;;;;;6.25;100.00;98912.16;5077503;28;20044;-68
2024/02/23 04:35:06;;;;;;;6.20;2.10;;;;;;;6.35;100.00;98909.38;5076537;28;20098;-68
2024/02/23 04:37:54;;;;;;;9.73;2.10;;;;;;;6.38;100.00;98922.31;5106054;28;20128;-68
2024/02/23 04:40:42;;;;;;;5.90;2.13;;;;;;;6.36;100.00;98920.97;5121976;27;20035;-68
2024/02/23 04:43:31;;;;;;;7.57;2.28;;;;;;;6.30;100.00;98922.94;5103794;27;20040;-68
2024/02/23 04:46:19;;;;;;;6.22;2.10;;;;;;;6.29;100.00;98931.34;5081629;28;20040;-68
2024/02/23 04:49:06;;;;;;;7.32;2.22;;;;;;;6.27;100.00;98928.91;5104027;27;20126;-68
2024/02/23 04:51:55;;;;;;;8.13;2.55;;;;;;;6.32;100.00;98930.75;5081314;28;20489;-68
2024/02/23 04:54:43;;;;;;;6.60;2.28;;;;;;;6.29;100.00;98926.72;5079289;28;20101;-67
2024/02/23 04:57:32;;;;;;;8.20;2.50;;;;;;;6.27;100.00;98928.09;5095405;28;20086;-68
2024/02/23 05:00:20;;;;;;;7.78;2.55;;;;;;;6.24;100.00;98929.47;5092769;27;20051;-68
2024/02/23 05:03:08;;;;;;;9.93;1.95;;;;;;;6.41;100.00;98926.34;5103656;28;20554;-69
2024/02/23 05:05:59;;;;;;;5.88;1.75;;;;;;;6.55;100.00;98927.25;5094492;28;20464;-68
2024/02/23 05:08:47;;;;;;;4.72;1.58;;;;;;;6.58;100.00;98921.25;5094981;28;20044;-69
2024/02/23 05:11:36;;;;;;;8.15;2.20;;;;;;;6.65;100.00;98926.34;5099411;28;20036;-69
2024/02/23 05:14:24;;;;;;;6.22;1.95;;;;;;;6.52;100.00;98933.25;5101794;27;20048;-67
2024/02/23 05:17:12;;;;;;;7.20;2.17;;;;;;;6.61;100.00;98936.13;5100084;28;20386;-67
2024/02/23 05:20:00;;;;;;;5.55;1.88;;;;;;;6.65;100.00;98931.75;5115363;27;20059;-69
2024/02/23 05:22:48;;;;;;;6.95;1.90;;;;;;;6.47;100.00;98938.72;5080864;28;20109;-67
2024/02/23 05:25:36;;;;;;;5.70;1.90;;;;;;;6.64;100.00;98924.72;5095390;28;20048;-67
2024/02/23 05:28:24;;;;;;;5.25;1.88;;;;;;;6.63;100.00;98919.59;5113825;28;20135;-67
2024/02/23 05:31:12;;;;;;;8.30;2.00;;;;;;;6.66;100.00;98927.94;5116536;27;20097;-68
2024/02/23 05:34:01;;;;;;;4.70;1.73;;;;;;;6.58;100.00;98923.97;5112278;27;20039;-67
2024/02/23 05:36:50;;;;;;;3.83;1.40;;;;;;;6.83;100.00;98928.28;5099498;28;20136;-68
2024/02/23 05:39:38;;;;;;;6.65;1.98;;;;;;;7.04;100.00;98928.00;5099421;28;20043;-69
2024/02/23 05:42:26;;;;;;;5.47;2.03;;;;;;;6.90;100.00;98932.53;5071214;28;20044;-68
2024/02/23 05:45:15;;;;;;;6.20;2.08;;;;;;;6.88;100.00;98923.88;5103855;27;20522;-69
2024/02/23 05:48:03;;;;;;;5.07;1.67;;;;;;;6.91;100.00;98921.41;5088505;28;20052;-68
2024/02/23 05:50:52;;;;;;;11.57;2.17;;;;;;;6.67;100.00;98929.56;5079655;28;20044;-68
2024/02/23 05:53:41;;;;;;;6.38;1.58;;;;;;;6.82;100.00;98931.28;5089619;28;20452;-68
2024/02/23 05:56:29;;;;;;;2.95;1.40;;;;;;;6.80;100.00;98923.44;5110026;28;20420;-69
2024/02/23 05:59:21;;;;;;;4.43;1.60;;;;;;;7.13;100.00;98912.72;5105265;28;20051;-68
2024/02/23 06:02:09;;;;;;;4.18;1.67;;;;;;;7.34;100.00;98912.44;5103196;28;20049;-69
2024/02/23 06:04:57;;;;;;;3.85;1.42;;;;;;;7.29;100.00;98915.22;5100506;28;20047;-69
2024/02/23 06:07:46;;;;;;;6.65;1.95;;;;;;;7.36;100.00;98916.47;5098593;28;20043;-69
2024/02/23 06:10:34;;;;;;;3.63;1.17;;;;;;;7.54;100.00;98909.41;5113433;28;20040;-68
2024/02/23 06:13:22;;;;;;;7.93;1.90;;;;;;;7.53;100.00;98896.97;5083994;27;20130;-69
2024/02/23 06:16:14;;;;;;;5.80;2.08;;;;;;;7.50;100.00;98911.09;5093927;28;20056;-70
2024/02/23 06:19:03;;;;;;;10.73;2.97;;;;;;;7.31;100.00;98904.88;5093109;28;20121;-69
2024/02/23 06:21:51;;;;;;;10.13;2.60;;;;;;;6.65;100.00;98906.59;5093195;28;20040;-70
2024/02/23 06:24:39;;;;;;;10.02;2.70;;;;;;;6.28;100.00;98916.22;5087973;28;20130;-69
2024/02/23 06:27:27;;;;;;;9.85;3.20;;;;;;;6.13;100.00;98914.44;5099863;28;20063;-69
2024/02/23 06:30:16;;;;;;;9.77;2.90;;;;;;;6.10;100.00;98915.03;5098099;28;20039;-68
2024/02/23 06:33:05;;;;;;;6.38;1.95;;;;;;;6.44;100.00;98916.84;4745332;28;10000404;-68
2024/02/23 06:35:53;;;;;;;6.95;1.73;;;;;;;6.85;100.00;98924.47;5120023;27;20323;-68
2024/02/23 06:38:41;;;;;;;6.93;2.47;;;;;;;6.99;100.00;98919.97;5126729;28;20062;-67
2024/02/23 06:41:31;;;;;;;6.82;2.17;;;;;;;6.94;100.00;98928.16;5103793;28;20059;-69
2024/02/23 06:44:19;;;;;;;7.55;2.20;;;;;;;7.25;100.00;98912.28;5108801;28;20424;-67
2024/02/23 06:47:07;;;;;;;4.35;1.67;;;;;;;7.19;100.00;98914.28;5132188;27;20094;-67
2024/02/23 06:49:55;;;;;;;8.50;2.47;;;;;;;7.04;100.00;98906.34;5105981;28;20066;-68
2024/02/23 06:52:49;;;;;;;5.53;1.90;;;;;;;7.24;100.00;98897.16;5103819;28;20477;-68
2024/02/23 06:55:37;;;;;;;6.97;1.60;;;;;;;7.28;100.00;98894.66;5095523;27;20039;-69
2024/02/23 06:58:25;;;;;;;18.38;1.98;;;;;;;7.61;100.00;98885.44;5075430;28;20128;-69
2024/02/23 07:01:13;;;;;;;5.25;2.13;;;;;;;7.68;100.00;98899.44;5074024;28;20085;-68
2024/02/23 07:04:02;;;;;;;3.13;1.15;;;;;;;7.67;100.00;98895.13;5074854;28;20047;-69
2024/02/23 07:06:50;;;;;;;6.13;1.35;;;;;;;7.55;100.00;98902.09;5084992;27;20054;-69
2024/02/23 07:09:38;;;;;;;5.47;1.58;;;;;;;7.85;100.00;98898.09;5074943;28;20097;-69
2024/02/23 07:12:29;;;;;;;4.15;1.83;;;;;;;7.71;100.00;98906.16;5073350;28;20135;-69
2024/02/23 07:15:17;;;;;;;5.85;2.30;;;;;;;7.14;100.00;98911.63;5075066;28;20052;-69
2024/02/23 07:18:07;;;;;;;8.68;2.38;;;;;;;7.15;100.00;98917.88;5078537;28;20047;-69
2024/02/23 07:20:55;;;;;;;7.57;2.17;;;;;;;7.16;100.00;98914.03;5087217;28;20487;-68
2024/02/23 07:23:43;;;;;;;5.68;2.00;;;;;;;7.19;100.00;98911.56;5095290;28;20047;-69
2024/02/23 07:26:31;;;;;;;7.90;2.03;;;;;;;7.27;100.00;98910.09;5098525;27;20062;-68
2024/02/23 07:29:20;;;;;;;3.67;1.45;;;;;;;7.56;100.00;98906.41;5087983;28;20051;-69
2024/02/23 07:32:08;;;;;;;5.25;1.73;;;;;;;7.40;100.00;98906.63;5084799;28;20046;-69
2024/02/23 07:34:56;;;;;;;7.75;2.33;;;;;;;7.33;100.00;98908.13;5097493;28;20158;-69
2024/02/23 07:37:44;;;;;;;8.05;2.50;;;;;;;7.24;100.00;98906.06;5080304;28;20074;-69
2024/02/23 07:40:32;;;;;;;7.50;2.40;;;;;;;7.02;100.00;98906.66;5112360;28;20047;-69
2024/02/23 07:43:20;;;;;;;4.78;1.90;;;;;;;7.02;100.00;98905.84;5082918;28;20400;-69
2024/02/23 07:46:08;;;;;;;3.55;1.48;;;;;;;7.36;100.00;98912.94;5110409;28;20040;-69
2024/02/23 07:48:56;;;;;;;7.03;2.67;;;;;;;7.33;100.00;98908.13;5104836;28;20047;-68
2024/02/23 07:51:45;;;;;;;8.73;2.17;;;;;;;7.52;100.00;98905.38;5091922;28;20048;-70
2024/02/23 07:54:33;;;;;;;6.30;1.80;;;;;;;7.36;100.00;98908.34;5073438;28;20510;-68
2024/02/23 07:57:21;;;;;;;21.95;5.30;;;;;;;7.34;100.00;98915.97;5096474;28;20134;-68
2024/02/23 08:00:09;;;;;;;19.23;5.20;;;;;;;7.58;100.00;98910.44;5096716;28;20591;-68
2024/02/23 08:03:00;;;;;;;20.08;4.75;;;;;;;7.56;100.00;98901.81;5101190;28;20492;-68
2024/02/23 08:05:48;;;;;;;20.77;5.13;;;;;;;7.75;100.00;98906.41;5082116;28;20096;-67
2024/02/23 08:08:37;;;;;;;14.82;4.30;;;;;;;7.46;100.00;98901.97;5112688;28;20067;-68
2024/02/23 08:11:25;;;;;;;22.38;5.03;;;;;;;7.57;100.00;98903.41;5095390;28;20054;-68
2024/02/23 08:14:13;;;;;;;23.17;5.05;;;;;;;7.83;100.00;98894.84;5092373;28;20040;-68
2024/02/23 08:17:01;;;;;;;15.85;4.03;;;;;;;7.98;100.00;98900.00;5091480;28;20044;-68
2024/02/23 08:19:49;;;;;;;10.73;3.30;;;;;;;7.66;100.00;98898.91;5103120;28;20035;-68
2024/02/23 08:22:37;;;;;;;11.38;3.40;;;;;;;7.42;100.00;98896.31;5086462;28;20036;-67
2024/02/23 08:25:28;;;;;;;9.20;3.13;;;;;;;7.32;100.00;98901.09;5096271;28;20043;-68
2024/02/23 08:28:16;;;;;;;24.75;5.60;;;;;;;7.95;100.00;98887.06;5112282;28;20130;-69
2024/02/23 08:31:04;;;;;;;21.27;5.35;;;;;;;8.10;100.00;98894.09;5108656;28;20092;-68
2024/02/23 08:33:52;;;;;;;17.38;4.72;;;;;;;7.93;100.00;98883.81;5133309;28;20043;-68
2024/02/23 08:36:40;;;;;;;13.27;4.30;;;;;;;8.00;100.00;98881.53;5132175;28;20375;-68
2024/02/23 08:39:28;;;;;;;17.33;4.90;;;;;;;8.26;100.00;98881.06;5103823;28;20043;-68
2024/02/23 08:42:16;;;;;;;16.30;3.88;;;;;;;8.33;100.00;98889.63;5116297;28;20043;-68
2024/02/23 08:45:05;;;;;;;11.40;3.40;;;;;;;8.70;100.00;98890.53;5095049;28;20117;-68
2024/02/23 08:47:53;;;;;;;10.40;3.55;;;;;;;8.79;100.00;98886.00;5075763;28;20071;-68
2024/02/23 08:50:41;;;;;;;10.00;3.00;;;;;;;8.65;100.00;98882.50;5092362;28;20044;-69
2024/02/23 08:53:29;;;;;;;11.55;2.90;;;;;;;8.64;100.00;98889.06;5107459;28;20040;-69
2024/02/23 08:56:17;;;;;;;9.25;2.83;;;;;;;7.55;100.00;98894.78;5111894;28;20054;-68
2024/02/23 08:59:05;;;;;;;9.98;2.58;;;;;;;7.26;100.00;98889.50;5083594;28;20052;-67
2024/02/23 09:01:53;;;;;;;6.40;2.63;;;;;;;7.19;100.00;98891.78;5083949;28;20040;-68
2024/02/23 09:04:44;;;;;;;14.27;3.88;;;;;;;7.32;100.00;98884.84;5113037;28;20122;-68
2024/02/23 09:07:32;;;;;;;15.32;3.53;;;;;;;7.59;100.00;98884.13;5096049;28;20510;-67
2024/02/23 09:10:20;;;;;;;12.77;3.72;;;;;;;7.84;100.00;98874.75;5112171;28;20051;-69
2024/02/23 09:13:08;;;;;;;12.23;3.50;;;;;;;8.23;100.00;98881.69;5082391;28;20068;-68
2024/02/23 09:15:57;;;;;;;8.60;3.05;;;;;;;7.90;100.00;98893.38;5096723;28;20067;-68
2024/02/23 09:18:46;;;;;;;8.50;2.50;;;;;;;7.84;100.00;98885.59;5097486;28;20035;-69
2024/02/23 09:21:34;;;;;;;10.35;2.85;;;;;;;7.59;100.00;98889.56;5095448;28;20047;-69
2024/02/23 09:24:22;;;;;;;8.93;2.83;;;;;;;7.56;100.00;98882.03;5099262;28;20118;-69
2024/02/23 09:27:10;;;;;;;8.38;2.70;;;;;;;7.91;100.00;98867.03;5092745;28;20044;-68
2024/02/23 09:29:58;;;;;;;9.75;2.63;;;;;;;8.15;100.00;98872.31;5093008;28;20039;-67
2024/02/23 09:32:46;;;;;;;12.25;2.88;;;;;;;7.97;100.00;98878.63;5134243;27;20035;-68
2024/02/23 09:35:35;;;;;;;9.38;2.75;;;;;;;7.88;100.00;98883.91;5081401;28;20043;-68
2024/02/23 09:38:24;;;;;;;7.32;2.42;;;;;;;7.65;100.00;98889.19;5065763;28;20036;-69
2024/02/23 09:41:23;;;;;;;9.48;2.70;;;;;;;7.86;100.00;98889.66;5094869;28;20036;-69
2024/02/23 09:44:11;;;;;;;6.07;2.25;;;;;;;7.72;100.00;98896.94;5059921;27;20042;-68
2024/02/23 09:47:07;;;;;;;8.63;2.58;;;;;;;7.98;100.00;98891.88;5100226;28;20043;-68
2024/02/23 09:49:56;;;;;;;12.00;2.80;;;;;;;8.14;100.00;98900.56;5086060;28;20396;-68
2024/02/23 09:52:44;;;;;;;8.65;1.85;;;;;;;7.83;100.00;98895.66;5114451;28;20122;-69
2024/02/23 09:55:32;;;;;;;9.80;2.55;;;;;;;7.67;100.00;98911.38;5071897;28;20044;-69
2024/02/23 09:58:21;;;;;;;7.78;2.80;;;;;;;7.86;100.00;98916.78;5066412;28;20048;-69
2024/02/23 10:01:11;;;;;;;8.90;2.70;;;;;;;7.77;100.00;98918.53;5079641;28;20055;-69
2024/02/23 10:04:04;;;;;;;7.93;2.20;;;;;;;7.69;100.00;98921.91;5076042;27;20042;-69
2024/02/23 10:06:52;;;;;;;8.93;2.75;;;;;;;7.90;100.00;98930.53;5098635;28;20123;-68
2024/02/23 10:09:41;;;;;;;4.65;2.13;;;;;;;7.76;100.00;98933.19;5098942;28;20424;-68
2024/02/23 10:12:29;;;;;;;9.13;2.45;;;;;;;7.95;100.00;98925.00;5098979;28;20039;-69
2024/02/23 10:15:17;;;;;;;6.22;2.20;;;;;;;7.67;100.00;98941.19;5077696;28;20447;-69
2024/02/23 10:18:05;;;;;;;7.30;2.08;;;;;;;7.59;100.00;98955.41;5113808;28;20043;-69
2024/02/23 10:20:54;;;;;;;8.45;2.50;;;;;;;7.44;100.00;98942.91;5085647;28;20124;-69
2024/02/23 10:23:43;;;;;;;5.68;1.73;;;;;;;7.39;100.00;98953.00;5115165;27;20035;-69
2024/02/23 10:26:32;;;;;;;7.18;2.20;;;;;;;7.55;100.00;98954.41;5114131;28;20063;-68
2024/02/23 10:29:20;;;;;;;6.40;2.60;;;;;;;7.94;100.00;98960.56;5114372;28;20173;-69
2024/02/23 10:32:14;;;;;;;6.85;2.38;;;;;;;7.62;100.00;98970.28;5099372;28;20035;-69
2024/02/23 10:35:04;;;;;;;6.68;2.40;;;;;;;7.62;100.00;98967.56;5113085;27;20051;-66
2024/02/23 10:37:53;;;;;;;5.50;1.98;;;;;;;7.21;100.00;98976.25;5078772;28;20519;-71
2024/02/23 10:40:41;;;;;;;6.00;2.30;;;;;;;6.99;100.00;98979.53;5065711;28;20074;-69
2024/02/23 10:43:41;;;;;;;5.68;2.20;;;;;;;6.90;100.00;98990.19;5084353;28;20043;-69
2024/02/23 10:46:29;;;;;;;5.90;2.25;;;;;;;6.97;100.00;98982.50;5101368;28;20088;-69
2024/02/23 10:49:19;;;;;;;4.53;1.75;;;;;;;7.03;100.00;98980.56;5108851;28;20472;-68
2024/02/23 10:52:11;;;;;;;6.20;2.33;;;;;;;7.61;100.00;98985.72;5114691;28;20047;-63
2024/02/23 10:55:04;;;;;;;5.88;2.80;;;;;;;7.64;100.00;98974.28;5109371;28;20043;-68
2024/02/23 10:57:53;;;;;;;8.68;2.63;;;;;;;7.89;100.00;98988.59;5103963;28;20042;-66
2024/02/23 11:00:42;;;;;;;6.25;2.20;;;;;;;7.85;100.00;98984.84;5120183;28;20084;-67
2024/02/23 11:03:31;;;;;;;6.60;2.25;;;;;;;7.63;100.00;98991.66;5109694;28;20044;-68
2024/02/23 11:06:22;;;;;;;5.68;2.10;;;;;;;7.68;100.00;98991.59;5100099;27;20116;-68
2024/02/23 11:09:13;;;;;;;8.43;2.60;;;;;;;7.43;100.00;98992.78;5095452;28;20044;-68
2024/02/23 11:12:05;;;;;;;5.18;2.20;;;;;;;7.66;100.00;98993.78;5099119;28;20039;-69
2024/02/23 11:15:00;;;;;;;6.70;2.20;;;;;;;7.84;100.00;98994.06;5084512;28;20040;-67
2024/02/23 11:17:50;;;;;;;4.95;1.90;;;;;;;7.80;100.00;98999.28;5108220;27;20040;-67
2024/02/23 11:20:39;;;;;;;6.05;2.13;;;;;;;7.62;100.00;98998.19;5097345;28;20101;-69
2024/02/23 11:23:27;;;;;;;7.10;2.53;;;;;;;7.34;100.00;98999.13;5079441;28;20070;-68
2024/02/23 11:26:15;;;;;;;10.10;2.25;;;;;;;7.23;100.00;98993.03;5080514;28;20077;-68
2024/02/23 11:29:14;;;;;;;8.55;2.67;;;;;;;7.14;100.00;98997.47;5076014;28;20161;-68
2024/02/23 11:32:03;;;;;;;5.03;1.95;;;;;;;7.12;100.00;98995.09;5079190;28;20056;-68
2024/02/23 11:34:59;;;;;;;7.50;2.45;;;;;;;7.12;100.00;98994.25;5095955;28;20131;-68
2024/02/23 11:37:58;;;;;;;8.70;2.80;;;;;;;7.14;100.00;99003.69;5097790;28;20376;-68
2024/02/23 11:40:48;;;;;;;10.00;2.60;;;;;;;7.14;100.00;99003.69;5085257;28;20050;-68
2024/02/23 11:43:36;;;;;;;9.13;2.47;;;;;;;7.16;100.00;99004.22;5083430;28;20039;-68
2024/02/23 11:46:24;;;;;;;8.70;2.90;;;;;;;7.36;100.00;98995.03;5076241;28;20185;-68
2024/02/23 11:49:14;;;;;;;29.55;13.25;;;;;;;7.56;100.00;99001.28;5077238;28;20082;-69
2024/02/23 11:52:02;;;;;;;15.05;6.25;;;;;;;7.53;100.00;98999.97;5077483;28;20040;-69
2024/02/23 11:54:50;;;;;;;39.38;17.15;;;;;;;7.54;100.00;99001.56;5094393;28;20066;-69
2024/02/23 11:57:39;;;;;;;114.22;54.50;;;;;;;7.90;100.00;98992.91;5106632;28;20055;-68
2024/02/23 12:00:35;;;;;;;44.88;20.58;;;;;;;8.12;100.00;99000.41;5102194;28;20506;-68
2024/02/23 12:03:25;;;;;;;11.10;3.33;;;;;;;7.84;100.00;99005.75;5117203;28;20047;-68
2024/02/23 12:06:15;;;;;;;12.48;2.70;;;;;;;7.48;100.00;99002.75;5072916;28;20039;-68
2024/02/23 12:09:04;;;;;;;7.40;2.60;;;;;;;7.34;100.00;99001.84;5086346;28;20042;-68
2024/02/23 12:11:52;;;;;;;7.28;2.40;;;;;;;7.29;100.00;99007.31;5096770;28;20089;-67
2024/02/23 12:14:41;;;;;;;56.88;25.35;;;;;;;7.51;100.00;99006.78;5096235;28;20050;-68
2024/02/23 12:17:29;;;;;;;39.25;17.45;;;;;;;7.63;100.00;98999.00;5093460;28;20047;-68
2024/02/23 12:20:17;;;;;;;99.97;48.95;;;;;;;7.66;100.00;99011.97;5111365;28;20130;-68
2024/02/23 12:23:07;;;;;;;44.55;21.33;;;;;;;7.97;100.00;99015.03;5095851;28;20031;-71
2024/02/23 12:25:57;;;;;;;55.85;27.80;;;;;;;8.06;100.00;99015.97;4385693;28;10001253;-69
2024/02/23 12:28:45;;;;;;;27.42;12.48;;;;;;;8.10;100.00;99019.72;5079045;28;20035;-68
2024/02/23 12:31:34;;;;;;;17.75;9.10;;;;;;;7.88;100.00;99016.78;5111808;28;20484;-68
2024/02/23 12:34:22;;;;;;;90.57;48.42;;;;;;;7.96;100.00;99009.88;5110864;28;20055;-69
2024/02/23 12:37:14;;;;;;;75.72;40.78;;;;;;;7.82;100.00;99007.13;5079903;28;20047;-69
2024/02/23 12:40:02;;;;;;;30.42;15.38;;;;;;;7.78;100.00;99011.53;5096068;28;20040;-69
2024/02/23 12:42:50;;;;;;;37.60;18.40;;;;;;;7.73;100.00;99019.72;5111758;28;20101;-69
2024/02/23 12:45:38;;;;;;;16.42;6.25;;;;;;;7.68;100.00;99018.69;5095101;28;20044;-68
2024/02/23 12:48:26;;;;;;;41.55;20.27;;;;;;;7.80;100.00;99017.47;5064428;28;20040;-68
2024/02/23 12:51:14;;;;;;;37.47;15.38;;;;;;;7.85;100.00;99020.91;5091485;28;20047;-68
2024/02/23 12:54:03;;;;;;;29.27;13.63;;;;;;;7.85;100.00;99011.97;5096796;28;20039;-68
2024/02/23 12:56:51;;;;;;;23.92;11.88;;;;;;;7.87;100.00;99015.19;5090876;28;20096;-68
2024/02/23 12:59:39;;;;;;;60.63;30.27;;;;;;;7.98;100.00;99015.81;5080818;28;20048;-68
2024/02/23 13:02:27;;;;;;;15.73;6.07;;;;;;;7.87;100.00;99012.47;5081760;28;20063;-68
2024/02/23 13:05:15;;;;;;;87.97;43.65;;;;;;;7.95;100.00;99011.78;5080151;28;20152;-68
2024/02/23 13:08:04;;;;;;;36.42;18.48;;;;;;;7.97;100.00;99020.44;5067310;28;20059;-67
2024/02/23 13:10:53;;;;;;;95.70;45.30;;;;;;;8.03;100.00;99013.84;5079990;27;20181;-68
2024/02/23 13:13:41;;;;;;;60.40;29.67;;;;;;;7.96;100.00;99016.13;5087572;28;20048;-67